createdAt,value
2023-01-23T00:00:26.044Z,50.908165
2023-01-23T00:01:26.047Z,50.908253
2023-01-23T00:02:26.047Z,50.908016
2023-01-23T00:03:26.063Z,50.908005
2023-01-23T00:04:26.140Z,50.908146
2023-01-23T00:05:26.005Z,50.908138
2023-01-23T00:06:25.993Z,50.908073
2023-01-23T00:07:25.988Z,50.908039
2023-01-23T00:08:26.021Z,50.908165
2023-01-23T00:09:26.007Z,50.908157
2023-01-23T00:10:26.080Z,50.908127
2023-01-23T00:11:25.969Z,50.908127
2023-01-23T00:12:25.951Z,50.908127
2023-01-23T00:13:25.946Z,50.908127
2023-01-23T00:14:25.960Z,50.908150
2023-01-23T00:15:25.929Z,50.908150
2023-01-23T00:16:25.927Z,50.908298
2023-01-23T00:17:25.919Z,50.908298
2023-01-23T00:18:25.905Z,50.908070
2023-01-23T00:19:25.932Z,50.908165
2023-01-23T00:20:25.916Z,50.908157
2023-01-23T00:21:25.896Z,50.908203
2023-01-23T00:22:25.877Z,50.908188
2023-01-23T00:23:25.877Z,50.908150
2023-01-23T00:24:25.896Z,50.908127
2023-01-23T00:25:25.857Z,50.908123
2023-01-23T00:26:25.942Z,50.908115
2023-01-23T00:27:25.835Z,50.908043
2023-01-23T00:28:25.839Z,50.908104
2023-01-23T00:29:25.850Z,50.908119
2023-01-23T00:30:25.819Z,50.908085
2023-01-23T00:31:25.996Z,50.908062
2023-01-23T00:32:25.806Z,50.907997
2023-01-23T00:33:25.792Z,50.908188
2023-01-23T00:34:25.820Z,50.908108
2023-01-23T00:35:25.779Z,50.908070
2023-01-23T00:36:25.773Z,50.908073
2023-01-23T00:37:25.775Z,50.908123
2023-01-23T00:38:25.759Z,50.908173
2023-01-23T00:39:25.803Z,50.908150
2023-01-23T00:40:25.743Z,50.908257
2023-01-23T00:41:25.741Z,50.908211
2023-01-23T00:42:25.816Z,50.908165
2023-01-23T00:43:25.724Z,50.908081
2023-01-23T00:44:25.743Z,50.908035
2023-01-23T00:45:25.705Z,50.907913
2023-01-23T00:46:25.740Z,50.908024
2023-01-23T00:47:25.691Z,50.908031
2023-01-23T00:48:25.681Z,50.908054
2023-01-23T00:49:25.683Z,50.908047
2023-01-23T00:50:25.695Z,50.908035
2023-01-23T00:51:25.690Z,50.908016
2023-01-23T00:52:25.634Z,50.908127
2023-01-23T00:53:26.646Z,50.908089
2023-01-23T00:54:25.643Z,50.908131
2023-01-23T00:55:25.659Z,50.908070
2023-01-23T00:56:25.628Z,50.908070
2023-01-23T00:57:25.630Z,50.908085
2023-01-23T00:58:25.677Z,50.908089
2023-01-23T00:59:25.692Z,50.908100
2023-01-23T01:00:25.616Z,50.908134
2023-01-23T01:01:25.630Z,50.908039
2023-01-23T01:02:25.646Z,50.908016
2023-01-23T01:03:25.581Z,50.908016
2023-01-23T01:04:25.579Z,50.908089
2023-01-23T01:05:25.581Z,50.908127
2023-01-23T01:06:25.552Z,50.908127
2023-01-23T01:07:25.542Z,50.908173
2023-01-23T01:08:25.536Z,50.908150
2023-01-23T01:09:25.533Z,50.908169
2023-01-23T01:10:25.547Z,50.908257
2023-01-23T01:11:25.515Z,50.908199
2023-01-23T01:12:25.504Z,50.908146
2023-01-23T01:13:25.501Z,50.908112
2023-01-23T01:14:25.562Z,50.907990
2023-01-23T01:15:25.507Z,50.908062
2023-01-23T01:16:25.520Z,50.908119
2023-01-23T01:17:25.464Z,50.908138
2023-01-23T01:18:25.462Z,50.908043
2023-01-23T01:19:25.455Z,50.908035
2023-01-23T01:20:25.482Z,50.908054
2023-01-23T01:21:25.436Z,50.908062
2023-01-23T01:22:25.427Z,50.908077
2023-01-23T01:23:25.435Z,50.908123
2023-01-23T01:24:25.424Z,50.908218
2023-01-23T01:25:25.479Z,50.908165
2023-01-23T01:26:25.408Z,50.908100
2023-01-23T01:27:25.383Z,50.908081
2023-01-23T01:28:25.381Z,50.908039
2023-01-23T01:29:25.374Z,50.908089
2023-01-23T01:30:25.558Z,50.908085
2023-01-23T01:31:25.499Z,50.908127
2023-01-23T01:32:25.350Z,50.908081
2023-01-23T01:33:25.345Z,50.908012
2023-01-23T01:34:25.343Z,50.908142
2023-01-23T01:35:25.359Z,50.908192
2023-01-23T01:36:25.324Z,50.908138
2023-01-23T01:37:25.312Z,50.908066
2023-01-23T01:38:25.311Z,50.908085
2023-01-23T01:39:25.304Z,50.908112
2023-01-23T01:40:25.324Z,50.908043
2023-01-23T01:41:25.292Z,50.908104
2023-01-23T01:42:25.283Z,50.908195
2023-01-23T01:43:25.280Z,50.908131
2023-01-23T01:44:25.265Z,50.908123
2023-01-23T01:45:25.281Z,50.908134
2023-01-23T01:46:25.389Z,50.908169
2023-01-23T01:47:25.242Z,50.908150
2023-01-23T01:48:25.236Z,50.908131
2023-01-23T01:49:25.237Z,50.908142
2023-01-23T01:50:25.248Z,50.908073
2023-01-23T01:51:25.252Z,50.908123
2023-01-23T01:52:25.208Z,50.908119
2023-01-23T01:53:25.199Z,50.908066
2023-01-23T01:54:25.197Z,50.908108
2023-01-23T01:55:25.215Z,50.908115
2023-01-23T01:56:25.178Z,50.908062
2023-01-23T01:57:25.175Z,50.908077
2023-01-23T01:58:25.162Z,50.908112
2023-01-23T01:59:25.154Z,50.908066
2023-01-23T02:00:25.223Z,50.908077
2023-01-23T02:01:25.144Z,50.908123
2023-01-23T02:02:25.206Z,50.908104
2023-01-23T02:03:25.120Z,50.908100
2023-01-23T02:04:26.116Z,50.908127
2023-01-23T02:05:25.143Z,50.908146
2023-01-23T02:06:25.116Z,50.908081
2023-01-23T02:07:25.099Z,50.908085
2023-01-23T02:08:25.086Z,50.908134
2023-01-23T02:09:25.090Z,50.908222
2023-01-23T02:10:25.107Z,50.908138
2023-01-23T02:11:25.065Z,50.908127
2023-01-23T02:12:25.059Z,50.908104
2023-01-23T02:13:25.046Z,50.908100
2023-01-23T02:14:25.041Z,50.908131
2023-01-23T02:15:25.063Z,50.908157
2023-01-23T02:16:25.054Z,50.908157
2023-01-23T02:17:25.020Z,50.908134
2023-01-23T02:18:25.092Z,50.908123
2023-01-23T02:19:24.999Z,50.908154
2023-01-23T02:20:25.033Z,50.908142
2023-01-23T02:21:25.503Z,50.908138
2023-01-23T02:22:25.983Z,50.908119
2023-01-23T02:23:24.974Z,50.908154
2023-01-23T02:24:24.954Z,50.908142
2023-01-23T02:25:25.982Z,50.908119
2023-01-23T02:26:24.946Z,50.908131
2023-01-23T02:27:24.942Z,50.908108
2023-01-23T02:28:24.935Z,50.908142
2023-01-23T02:29:24.933Z,50.908138
2023-01-23T02:30:24.925Z,50.908127
2023-01-23T02:31:25.011Z,50.908115
2023-01-23T02:32:24.907Z,50.908115
2023-01-23T02:33:24.902Z,50.908157
2023-01-23T02:34:24.985Z,50.908142
2023-01-23T02:35:24.883Z,50.908138
2023-01-23T02:36:24.905Z,50.908054
2023-01-23T02:37:24.879Z,50.908104
2023-01-23T02:38:24.852Z,50.908100
2023-01-23T02:39:25.854Z,50.908100
2023-01-23T02:40:24.843Z,50.908142
2023-01-23T02:41:24.852Z,50.908115
2023-01-23T02:42:25.837Z,50.908108
2023-01-23T02:43:24.819Z,50.908104
2023-01-23T02:44:24.815Z,50.908134
2023-01-23T02:45:24.838Z,50.908127
2023-01-23T02:46:24.832Z,50.908150
2023-01-23T02:47:24.788Z,50.908127
2023-01-23T02:48:24.789Z,50.908123
2023-01-23T02:49:24.783Z,50.908150
2023-01-23T02:50:24.849Z,50.908146
2023-01-23T02:51:24.872Z,50.908146
2023-01-23T02:52:24.755Z,50.908142
2023-01-23T02:53:24.744Z,50.908150
2023-01-23T02:54:24.741Z,50.908138
2023-01-23T02:55:24.726Z,50.908154
2023-01-23T02:56:24.750Z,50.908199
2023-01-23T02:57:24.743Z,50.908169
2023-01-23T02:58:24.712Z,50.908161
2023-01-23T02:59:24.702Z,50.908157
2023-01-23T03:00:24.701Z,50.908157
2023-01-23T03:01:24.713Z,50.908180
2023-01-23T03:02:24.744Z,50.908157
2023-01-23T03:03:24.671Z,50.908169
2023-01-23T03:04:24.667Z,50.908154
2023-01-23T03:05:24.656Z,50.908108
2023-01-23T03:06:24.753Z,50.908195
2023-01-23T03:07:24.653Z,50.908127
2023-01-23T03:08:24.631Z,50.908173
2023-01-23T03:09:24.634Z,50.908192
2023-01-23T03:10:24.624Z,50.908199
2023-01-23T03:11:24.637Z,50.908188
2023-01-23T03:12:24.600Z,50.908154
2023-01-23T03:13:24.597Z,50.908146
2023-01-23T03:14:24.632Z,50.908157
2023-01-23T03:15:24.582Z,50.908165
2023-01-23T03:16:24.657Z,50.908161
2023-01-23T03:17:24.582Z,50.908195
2023-01-23T03:18:24.556Z,50.908199
2023-01-23T03:19:24.568Z,50.908173
2023-01-23T03:20:24.544Z,50.908176
2023-01-23T03:21:25.559Z,50.908169
2023-01-23T03:22:24.605Z,50.908157
2023-01-23T03:23:24.523Z,50.908173
2023-01-23T03:24:24.517Z,50.908165
2023-01-23T03:25:24.516Z,50.908161
2023-01-23T03:26:24.526Z,50.908188
2023-01-23T03:27:24.487Z,50.908176
2023-01-23T03:28:24.488Z,50.908154
2023-01-23T03:29:24.476Z,50.908169
2023-01-23T03:30:24.467Z,50.908127
2023-01-23T03:31:24.523Z,50.908180
2023-01-23T03:32:24.456Z,50.908169
2023-01-23T03:33:24.447Z,50.908161
2023-01-23T03:34:24.443Z,50.908161
2023-01-23T03:35:24.436Z,50.908123
2023-01-23T03:36:24.449Z,50.908165
2023-01-23T03:37:24.416Z,50.907997
2023-01-23T03:38:24.479Z,50.907612
2023-01-23T03:39:24.406Z,50.907570
2023-01-23T03:40:24.402Z,50.907837
2023-01-23T03:41:24.414Z,50.908062
2023-01-23T03:42:24.411Z,50.908268
2023-01-23T03:43:24.369Z,50.908218
2023-01-23T03:44:24.366Z,50.908237
2023-01-23T03:45:24.484Z,50.908085
2023-01-23T03:46:24.371Z,50.908085
2023-01-23T03:47:24.342Z,50.908039
2023-01-23T03:48:24.330Z,50.908085
2023-01-23T03:49:24.323Z,50.907936
2023-01-23T03:50:24.313Z,50.907837
2023-01-23T03:51:24.362Z,50.907906
2023-01-23T03:52:24.303Z,50.907887
2023-01-23T03:53:24.292Z,50.907894
2023-01-23T03:54:24.381Z,50.907917
2023-01-23T03:55:24.277Z,50.907875
2023-01-23T03:56:24.295Z,50.907940
2023-01-23T03:57:24.266Z,50.907940
2023-01-23T03:58:24.258Z,50.907753
2023-01-23T03:59:24.251Z,50.907990
2023-01-23T04:00:24.252Z,50.908131
2023-01-23T04:01:24.369Z,50.908123
2023-01-23T04:02:24.266Z,50.907963
2023-01-23T04:03:24.216Z,50.908157
2023-01-23T04:04:24.212Z,50.907948
2023-01-23T04:05:24.203Z,50.908081
2023-01-23T04:06:24.226Z,50.908077
2023-01-23T04:07:24.196Z,50.908089
2023-01-23T04:08:24.182Z,50.908020
2023-01-23T04:09:24.169Z,50.908119
2023-01-23T04:10:24.241Z,50.908096
2023-01-23T04:11:24.172Z,50.908150
2023-01-23T04:12:24.181Z,50.908195
2023-01-23T04:13:24.148Z,50.908199
2023-01-23T04:14:24.137Z,50.908100
2023-01-23T04:15:24.141Z,50.908112
2023-01-23T04:16:24.139Z,50.908073
2023-01-23T04:17:24.144Z,50.908104
2023-01-23T04:18:24.113Z,50.908165
2023-01-23T04:19:24.112Z,50.908150
2023-01-23T04:20:24.095Z,50.908195
2023-01-23T04:21:24.084Z,50.908253
2023-01-23T04:22:24.105Z,50.908195
2023-01-23T04:23:24.082Z,50.908127
2023-01-23T04:24:24.074Z,50.908142
2023-01-23T04:25:24.058Z,50.908089
2023-01-23T04:26:24.126Z,50.908112
2023-01-23T04:27:24.072Z,50.908150
2023-01-23T04:28:24.040Z,50.908154
2023-01-23T04:29:24.045Z,50.908104
2023-01-23T04:30:24.022Z,50.908173
2023-01-23T04:31:24.079Z,50.908142
2023-01-23T04:32:24.031Z,50.908188
2023-01-23T04:33:24.007Z,50.908138
2023-01-23T04:34:23.995Z,50.908035
2023-01-23T04:35:23.983Z,50.907974
2023-01-23T04:36:23.976Z,50.908100
2023-01-23T04:37:23.995Z,50.908123
2023-01-23T04:38:23.975Z,50.908131
2023-01-23T04:39:23.952Z,50.908161
2023-01-23T04:40:23.947Z,50.908024
2023-01-23T04:41:23.938Z,50.908054
2023-01-23T04:42:24.031Z,50.908169
2023-01-23T04:43:23.919Z,50.908104
2023-01-23T04:44:23.913Z,50.908104
2023-01-23T04:45:23.948Z,50.908115
2023-01-23T04:46:23.937Z,50.908123
2023-01-23T04:47:23.894Z,50.908134
2023-01-23T04:48:23.905Z,50.908123
2023-01-23T04:49:23.882Z,50.908035
2023-01-23T04:50:23.901Z,50.908009
2023-01-23T04:51:23.917Z,50.908062
2023-01-23T04:52:24.861Z,50.908165
2023-01-23T04:53:23.856Z,50.908112
2023-01-23T04:54:23.842Z,50.908085
2023-01-23T04:55:23.863Z,50.908089
2023-01-23T04:56:23.826Z,50.908108
2023-01-23T04:57:23.817Z,50.908081
2023-01-23T04:58:23.887Z,50.908146
2023-01-23T04:59:23.809Z,50.908092
2023-01-23T05:00:23.829Z,50.908142
2023-01-23T05:01:23.817Z,50.908134
2023-01-23T05:02:23.829Z,50.908123
2023-01-23T05:03:23.777Z,50.908096
2023-01-23T05:04:23.772Z,50.908146
2023-01-23T05:05:23.789Z,50.908154
2023-01-23T05:06:23.750Z,50.908188
2023-01-23T05:07:23.753Z,50.908176
2023-01-23T05:08:23.739Z,50.908154
2023-01-23T05:09:23.735Z,50.908218
2023-01-23T05:10:23.780Z,50.908184
2023-01-23T05:11:23.742Z,50.908157
2023-01-23T05:12:23.708Z,50.908165
2023-01-23T05:13:23.704Z,50.908077
2023-01-23T05:14:23.769Z,50.908051
2023-01-23T05:15:23.740Z,50.908127
2023-01-23T05:16:23.680Z,50.908154
2023-01-23T05:17:23.669Z,50.908100
2023-01-23T05:18:23.690Z,50.908112
2023-01-23T05:19:23.655Z,50.908115
2023-01-23T05:20:23.661Z,50.908154
2023-01-23T05:21:23.682Z,50.908146
2023-01-23T05:22:23.634Z,50.908142
2023-01-23T05:23:23.628Z,50.908096
2023-01-23T05:24:23.620Z,50.908108
2023-01-23T05:25:23.612Z,50.908127
2023-01-23T05:26:23.636Z,50.908089
2023-01-23T05:27:23.600Z,50.908127
2023-01-23T05:28:23.586Z,50.908100
2023-01-23T05:29:23.579Z,50.908127
2023-01-23T05:30:23.659Z,50.908127
2023-01-23T05:31:23.684Z,50.908123
2023-01-23T05:32:23.564Z,50.908096
2023-01-23T05:33:23.551Z,50.908108
2023-01-23T05:34:23.546Z,50.908112
2023-01-23T05:35:23.543Z,50.908134
2023-01-23T05:36:23.558Z,50.908115
2023-01-23T05:37:23.522Z,50.908142
2023-01-23T05:38:23.511Z,50.908104
2023-01-23T05:39:23.508Z,50.908108
2023-01-23T05:40:23.500Z,50.908119
2023-01-23T05:41:25.585Z,50.908154
2023-01-23T05:42:24.483Z,50.908100
2023-01-23T05:43:23.479Z,50.908077
2023-01-23T05:44:23.466Z,50.908077
2023-01-23T05:45:23.471Z,50.908150
2023-01-23T05:46:23.653Z,50.908115
2023-01-23T05:47:23.444Z,50.908142
2023-01-23T05:48:23.453Z,50.908173
2023-01-23T05:49:23.431Z,50.908161
2023-01-23T05:50:23.423Z,50.908096
2023-01-23T05:51:23.614Z,50.908157
2023-01-23T05:52:23.409Z,50.908184
2023-01-23T05:53:23.402Z,50.908237
2023-01-23T05:54:23.393Z,50.908142
2023-01-23T05:55:23.381Z,50.908108
2023-01-23T05:56:23.418Z,50.908100
2023-01-23T05:57:23.371Z,50.908146
2023-01-23T05:58:23.358Z,50.908066
2023-01-23T05:59:23.361Z,50.908131
2023-01-23T06:00:23.343Z,50.908138
2023-01-23T06:01:23.338Z,50.908203
2023-01-23T06:02:23.617Z,50.908234
2023-01-23T06:03:23.466Z,50.908237
2023-01-23T06:04:23.324Z,50.908123
2023-01-23T06:05:23.309Z,50.908096
2023-01-23T06:06:23.307Z,50.908119
2023-01-23T06:07:23.326Z,50.908054
2023-01-23T06:08:23.271Z,50.908058
2023-01-23T06:09:24.284Z,50.908165
2023-01-23T06:10:23.271Z,50.908142
2023-01-23T06:11:23.271Z,50.908134
2023-01-23T06:12:23.284Z,50.908108
2023-01-23T06:13:23.256Z,50.908054
2023-01-23T06:14:23.273Z,50.908215
2023-01-23T06:15:23.235Z,50.908249
2023-01-23T06:16:23.234Z,50.907986
2023-01-23T06:17:23.247Z,50.908058
2023-01-23T06:18:23.290Z,50.908222
2023-01-23T06:19:23.222Z,50.908176
2023-01-23T06:20:23.195Z,50.908081
2023-01-23T06:21:23.194Z,50.908188
2023-01-23T06:22:23.215Z,50.908176
2023-01-23T06:23:23.189Z,50.908066
2023-01-23T06:24:23.173Z,50.907990
2023-01-23T06:25:23.162Z,50.908157
2023-01-23T06:26:23.157Z,50.908024
2023-01-23T06:27:23.180Z,50.907848
2023-01-23T06:28:23.142Z,50.907806
2023-01-23T06:29:23.149Z,50.908096
2023-01-23T06:30:23.224Z,50.908157
2023-01-23T06:31:23.251Z,50.908073
2023-01-23T06:32:23.139Z,50.908241
2023-01-23T06:33:23.107Z,50.908268
2023-01-23T06:34:23.170Z,50.908215
2023-01-23T06:35:23.089Z,50.908131
2023-01-23T06:36:23.081Z,50.908073
2023-01-23T06:37:23.101Z,50.908192
2023-01-23T06:38:23.066Z,50.908165
2023-01-23T06:39:23.115Z,50.908146
2023-01-23T06:40:23.050Z,50.908268
2023-01-23T06:41:23.042Z,50.908367
2023-01-23T06:42:23.078Z,50.908207
2023-01-23T06:43:23.083Z,50.908302
2023-01-23T06:44:23.016Z,50.908264
2023-01-23T06:45:23.039Z,50.908203
2023-01-23T06:46:23.055Z,50.908203
2023-01-23T06:47:22.996Z,50.908226
2023-01-23T06:48:23.017Z,50.908119
2023-01-23T06:49:23.002Z,50.908173
2023-01-23T06:50:23.291Z,50.908226
2023-01-23T06:51:24.017Z,50.908306
2023-01-23T06:52:22.962Z,50.908287
2023-01-23T06:53:22.979Z,50.908180
2023-01-23T06:54:22.943Z,50.908138
2023-01-23T06:55:22.948Z,50.908360
2023-01-23T06:56:22.938Z,50.908192
2023-01-23T06:57:22.915Z,50.908134
2023-01-23T06:58:22.937Z,50.908348
2023-01-23T06:59:22.905Z,50.908379
2023-01-23T07:00:23.071Z,50.908073
2023-01-23T07:01:22.934Z,50.908607
2023-01-23T07:02:22.886Z,50.908546
2023-01-23T07:03:22.904Z,50.908588
2023-01-23T07:04:22.879Z,50.908588
2023-01-23T07:05:22.878Z,50.908588
2023-01-23T07:06:22.941Z,50.908150
2023-01-23T07:07:22.859Z,50.908134
2023-01-23T07:08:22.878Z,50.908226
2023-01-23T07:09:22.837Z,50.908615
2023-01-23T07:10:22.836Z,50.908352
2023-01-23T07:11:22.831Z,50.908306
2023-01-23T07:12:22.822Z,50.908199
2023-01-23T07:13:22.833Z,50.908295
2023-01-23T07:14:22.805Z,50.908165
2023-01-23T07:15:22.799Z,50.908127
2023-01-23T07:16:22.820Z,50.908298
2023-01-23T07:17:22.782Z,50.908207
2023-01-23T07:18:22.800Z,50.908257
2023-01-23T07:19:22.759Z,50.908203
2023-01-23T07:20:23.757Z,50.908192
2023-01-23T07:21:22.743Z,50.908096
2023-01-23T07:22:22.824Z,50.908146
2023-01-23T07:23:22.759Z,50.908123
2023-01-23T07:24:22.733Z,50.908195
2023-01-23T07:25:22.724Z,50.908184
2023-01-23T07:26:22.709Z,50.908192
2023-01-23T07:27:23.720Z,50.908146
2023-01-23T07:28:22.720Z,50.907978
2023-01-23T07:29:22.689Z,50.907963
2023-01-23T07:30:22.959Z,50.908020
2023-01-23T07:31:22.751Z,50.908119
2023-01-23T07:32:22.671Z,50.908207
2023-01-23T07:33:22.689Z,50.908127
2023-01-23T07:34:22.653Z,50.908104
2023-01-23T07:35:22.646Z,50.908092
2023-01-23T07:36:22.640Z,50.908142
2023-01-23T07:37:22.639Z,50.908112
2023-01-23T07:38:22.764Z,50.908115
2023-01-23T07:39:22.626Z,50.908119
2023-01-23T07:40:22.796Z,50.908146
2023-01-23T07:41:22.607Z,50.908104
2023-01-23T07:42:22.596Z,50.908142
2023-01-23T07:43:22.620Z,50.908142
2023-01-23T07:44:22.582Z,50.908062
2023-01-23T07:45:22.575Z,50.908112
2023-01-23T07:46:22.614Z,50.908127
2023-01-23T07:47:22.564Z,50.908092
2023-01-23T07:48:22.578Z,50.908100
2023-01-23T07:49:22.550Z,50.908085
2023-01-23T07:50:22.763Z,50.908081
2023-01-23T07:51:22.583Z,50.908115
2023-01-23T07:52:22.527Z,50.908146
2023-01-23T07:53:22.544Z,50.908123
2023-01-23T07:54:22.593Z,50.908119
2023-01-23T07:55:22.504Z,50.908115
2023-01-23T07:56:22.493Z,50.908115
2023-01-23T07:57:22.485Z,50.908100
2023-01-23T07:58:22.509Z,50.908100
2023-01-23T07:59:22.477Z,50.908089
2023-01-23T08:00:24.589Z,50.908081
2023-01-23T08:01:23.469Z,50.908123
2023-01-23T08:02:22.454Z,50.908150
2023-01-23T08:03:22.470Z,50.908085
2023-01-23T08:04:22.437Z,50.908070
2023-01-23T08:05:22.428Z,50.908104
2023-01-23T08:06:22.423Z,50.908081
2023-01-23T08:07:22.433Z,50.908138
2023-01-23T08:08:22.451Z,50.908085
2023-01-23T08:09:22.400Z,50.908073
2023-01-23T08:10:22.867Z,50.908073
2023-01-23T08:11:22.388Z,50.908035
2023-01-23T08:12:22.384Z,50.908077
2023-01-23T08:13:22.400Z,50.908100
2023-01-23T08:14:22.369Z,50.908092
2023-01-23T08:15:22.360Z,50.908123
2023-01-23T08:16:22.384Z,50.908119
2023-01-23T08:17:22.346Z,50.908031
2023-01-23T08:18:22.363Z,50.908100
2023-01-23T08:19:22.329Z,50.908104
2023-01-23T08:20:22.567Z,50.908089
2023-01-23T08:21:22.312Z,50.908127
2023-01-23T08:22:22.306Z,50.908123
2023-01-23T08:23:22.328Z,50.908073
2023-01-23T08:24:22.293Z,50.908104
2023-01-23T08:25:22.282Z,50.908081
2023-01-23T08:26:22.377Z,50.908073
2023-01-23T08:27:22.268Z,50.908085
2023-01-23T08:28:22.302Z,50.908047
2023-01-23T08:29:22.254Z,50.908096
2023-01-23T08:30:22.639Z,50.908100
2023-01-23T08:31:22.501Z,50.908108
2023-01-23T08:32:22.233Z,50.908112
2023-01-23T08:33:22.254Z,50.908081
2023-01-23T08:34:22.232Z,50.908104
2023-01-23T08:35:22.234Z,50.908073
2023-01-23T08:36:22.211Z,50.908081
2023-01-23T08:37:22.196Z,50.908089
2023-01-23T08:38:22.224Z,50.908077
2023-01-23T08:39:22.189Z,50.908062
2023-01-23T08:40:22.425Z,50.908104
2023-01-23T08:41:22.166Z,50.908104
2023-01-23T08:42:22.230Z,50.908104
2023-01-23T08:43:22.152Z,50.908066
2023-01-23T08:44:22.170Z,50.908115
2023-01-23T08:45:22.141Z,50.908127
2023-01-23T08:46:22.131Z,50.908127
2023-01-23T08:47:22.135Z,50.908070
2023-01-23T08:48:22.115Z,50.908115
2023-01-23T08:49:22.127Z,50.908104
2023-01-23T08:50:22.432Z,50.908115
2023-01-23T08:51:22.149Z,50.908112
2023-01-23T08:52:23.087Z,50.908062
2023-01-23T08:53:22.079Z,50.908154
2023-01-23T08:54:22.096Z,50.908119
2023-01-23T08:55:22.070Z,50.908161
2023-01-23T08:56:22.065Z,50.908112
2023-01-23T08:57:22.047Z,50.908119
2023-01-23T08:58:22.100Z,50.908165
2023-01-23T08:59:23.058Z,50.908127
2023-01-23T09:00:22.429Z,50.908108
2023-01-23T09:01:22.121Z,50.908066
2023-01-23T09:02:22.108Z,50.908051
2023-01-23T09:03:22.015Z,50.908108
2023-01-23T09:04:22.036Z,50.908104
2023-01-23T09:05:21.987Z,50.908115
2023-01-23T09:06:21.989Z,50.908081
2023-01-23T09:07:21.984Z,50.908108
2023-01-23T09:08:21.966Z,50.908085
2023-01-23T09:09:21.985Z,50.908043
2023-01-23T09:10:22.319Z,50.908047
2023-01-23T09:11:21.944Z,50.908047
2023-01-23T09:12:21.950Z,50.908085
2023-01-23T09:13:21.922Z,50.908104
2023-01-23T09:14:21.942Z,50.908100
2023-01-23T09:15:21.919Z,50.908108
2023-01-23T09:16:21.917Z,50.908096
2023-01-23T09:17:21.899Z,50.908134
2023-01-23T09:18:21.883Z,50.908127
2023-01-23T09:19:21.905Z,50.908119
2023-01-23T09:20:22.108Z,50.908112
2023-01-23T09:21:21.867Z,50.908081
2023-01-23T09:22:21.861Z,50.908100
2023-01-23T09:23:21.859Z,50.908043
2023-01-23T09:24:21.877Z,50.908058
2023-01-23T09:25:21.833Z,50.908073
2023-01-23T09:26:21.827Z,50.908138
2023-01-23T09:27:21.821Z,50.908112
2023-01-23T09:28:21.810Z,50.908112
2023-01-23T09:29:21.834Z,50.908176
2023-01-23T09:30:22.361Z,50.908234
2023-01-23T09:31:21.818Z,50.908146
2023-01-23T09:32:21.780Z,50.908123
2023-01-23T09:33:21.764Z,50.908161
2023-01-23T09:34:22.793Z,50.908131
2023-01-23T09:35:21.762Z,50.908112
2023-01-23T09:36:33.638Z,50.908085
2023-01-23T09:37:23.750Z,50.908043
2023-01-23T09:38:21.743Z,50.908108
2023-01-23T09:39:21.756Z,50.908009
2023-01-23T09:40:22.325Z,50.908123
2023-01-23T09:41:21.715Z,50.908127
2023-01-23T09:42:21.703Z,50.908085
2023-01-23T09:43:21.706Z,50.908039
2023-01-23T09:44:21.717Z,50.908005
2023-01-23T09:45:21.683Z,50.907978
2023-01-23T09:46:21.751Z,50.908112
2023-01-23T09:47:21.663Z,50.907978
2023-01-23T09:48:21.662Z,50.908020
2023-01-23T09:49:21.675Z,50.907997
2023-01-23T09:50:21.979Z,50.908085
2023-01-23T09:51:21.669Z,50.908134
2023-01-23T09:52:21.626Z,50.908058
2023-01-23T09:53:21.613Z,50.908138
2023-01-23T09:54:21.670Z,50.908123
2023-01-23T09:55:21.601Z,50.908028
2023-01-23T09:56:21.616Z,50.908081
2023-01-23T09:57:21.584Z,50.908150
2023-01-23T09:58:21.581Z,50.908154
2023-01-23T09:59:21.595Z,50.908165
2023-01-23T10:00:21.847Z,50.908230
2023-01-23T10:01:21.561Z,50.908161
2023-01-23T10:02:21.562Z,50.908134
2023-01-23T10:03:21.541Z,50.908154
2023-01-23T10:04:21.538Z,50.908092
2023-01-23T10:05:21.550Z,50.908142
2023-01-23T10:06:21.520Z,50.908096
2023-01-23T10:07:21.514Z,50.908195
2023-01-23T10:08:21.500Z,50.908371
2023-01-23T10:09:21.494Z,50.908226
2023-01-23T10:10:21.848Z,50.908085
2023-01-23T10:11:21.479Z,50.908096
2023-01-23T10:12:21.473Z,50.908127
2023-01-23T10:13:21.484Z,50.908161
2023-01-23T10:14:21.456Z,50.907982
2023-01-23T10:15:21.823Z,50.907936
2023-01-23T10:16:21.458Z,50.908031
2023-01-23T10:17:21.540Z,50.907948
2023-01-23T10:18:21.516Z,50.908112
2023-01-23T10:19:21.416Z,50.908226
2023-01-23T10:20:21.841Z,50.908092
2023-01-23T10:21:21.412Z,50.908127
2023-01-23T10:22:23.114Z,50.908138
2023-01-23T10:23:22.384Z,50.908127
2023-01-23T10:24:23.593Z,50.908077
2023-01-23T10:25:22.875Z,50.908127
2023-01-23T10:26:21.360Z,50.908138
2023-01-23T10:27:21.371Z,50.908150
2023-01-23T10:28:21.345Z,50.908131
2023-01-23T10:29:21.331Z,50.908157
2023-01-23T10:30:21.562Z,50.908245
2023-01-23T10:31:21.376Z,50.908180
2023-01-23T10:32:21.317Z,50.908180
2023-01-23T10:33:21.308Z,50.908180
2023-01-23T10:34:21.377Z,50.908142
2023-01-23T10:35:21.515Z,50.908146
2023-01-23T10:36:23.908Z,50.908138
2023-01-23T10:37:22.275Z,50.908157
2023-01-23T10:38:21.267Z,50.908161
2023-01-23T10:39:21.260Z,50.908154
2023-01-23T10:40:21.543Z,50.908165
2023-01-23T10:41:23.328Z,50.908192
2023-01-23T10:42:22.233Z,50.908157
2023-01-23T10:43:21.233Z,50.908146
2023-01-23T10:44:21.221Z,50.908131
2023-01-23T10:45:21.545Z,50.908134
2023-01-23T10:46:21.350Z,50.908131
2023-01-23T10:47:21.212Z,50.908131
2023-01-23T10:48:21.188Z,50.908150
2023-01-23T10:49:21.183Z,50.908127
2023-01-23T10:50:21.246Z,50.908123
2023-01-23T10:51:21.221Z,50.908092
2023-01-23T10:52:21.448Z,50.908096
2023-01-23T10:53:21.153Z,50.908089
2023-01-23T10:54:33.278Z,50.908092
2023-01-23T10:55:23.479Z,50.908104
2023-01-23T10:56:21.159Z,50.908112
2023-01-23T10:57:21.149Z,50.908077
2023-01-23T10:58:21.116Z,50.908092
2023-01-23T10:59:21.104Z,50.908127
2023-01-23T11:00:21.098Z,50.908119
2023-01-23T11:01:21.156Z,50.908119
2023-01-23T11:02:21.298Z,50.908115
2023-01-23T11:03:21.079Z,50.908131
2023-01-23T11:04:21.070Z,50.908104
2023-01-23T11:05:21.416Z,50.908112
2023-01-23T11:06:21.183Z,50.908127
2023-01-23T11:07:21.060Z,50.908123
2023-01-23T11:08:21.031Z,50.908100
2023-01-23T11:09:21.021Z,50.908081
2023-01-23T11:10:21.022Z,50.908104
2023-01-23T11:11:21.040Z,50.908108
2023-01-23T11:12:21.006Z,50.908108
2023-01-23T11:13:20.990Z,50.908146
2023-01-23T11:14:21.006Z,50.908176
2023-01-23T11:15:21.413Z,50.908123
2023-01-23T11:16:21.043Z,50.908123
2023-01-23T11:17:20.961Z,50.908127
2023-01-23T11:18:20.957Z,50.908100
2023-01-23T11:19:20.948Z,50.908123
2023-01-23T11:20:20.936Z,50.908104
2023-01-23T11:21:20.958Z,50.908108
2023-01-23T11:22:21.002Z,50.908119
2023-01-23T11:23:20.918Z,50.908108
2023-01-23T11:24:27.702Z,50.908100